Farrow Terrace, South Carolina
Current Conditions -  °F | °C
As of 10:53 PM on Thursday 27 Nov 2014 (Local Time) from KCUB Reporting Station
Clear Clear  
Wind Chill: 40°   Ceiling: Unl
Heat Index: 40°   Visibility: 10mi
Dew Point: 26°   Wind: 0mph
Humidity: 58%   Direction: NA
Pressure: 30.32"   Gusts: NA
Location:  34.1179°N, 81.0612°W
Report Text: KCUB 280353Z AUTO 00000KT 10SM CLR 04/M03 A3032 RMK AO2 SLP267 T00441033
Loading
Personal Weather Stations






























Interactive Weather Map New forecast layout! Learn more

10-Day Weather Forecast

Advertisements
Track Severe Weather on mobile